Time;durP1;ratioP1;P1;durP2;ratioP2;P2;SDS_P1;SDS_P2;PMS_P1;PMS_P2;Temp;Humidity;BMP_temperature;BMP_pressure;BME280_temperature;BME280_humidity;BME280_pressure;Samples;Min_cycle;Max_cycle;Signal;HPM_P1;HPM_P2
2022/03/23 00:10:00;;;;;;;4.40;2.22;;;0.60;71.20;;;;;;20909010;28;20037;-49
2022/03/23 00:20:04;;;;;;;4.20;2.17;;;0.50;71.70;;;;;;20907872;28;20438;-47
2022/03/23 00:30:08;;;;;;;3.83;1.90;;;0.40;71.90;;;;;;20907286;28;20059;-48
2022/03/23 00:40:11;;;;;;;4.50;2.50;;;0.40;71.40;;;;;;20906229;28;20114;-46
2022/03/23 00:50:14;;;;;;;4.47;2.30;;;0.50;71.90;;;;;;20905644;28;20040;-47
2022/03/23 01:00:22;;;;;;;5.43;2.47;;;0.40;72.60;;;;;;20904578;28;20488;-46
2022/03/23 01:10:25;;;;;;;4.05;2.30;;;0.50;71.30;;;;;;20888051;28;20098;-46
2022/03/23 01:20:29;;;;;;;4.45;2.47;;;0.60;71.40;;;;;;20813146;28;20088;-46
2022/03/23 01:30:31;;;;;;;3.95;2.03;;;0.60;70.50;;;;;;20780144;28;20092;-44
2022/03/23 01:40:33;;;;;;;5.43;2.42;;;0.60;72.50;;;;;;20779446;28;20103;-46
2022/03/23 01:50:36;;;;;;;4.05;2.22;;;0.50;73.40;;;;;;20795703;28;20409;-45
2022/03/23 02:00:39;;;;;;;4.65;2.15;;;0.40;73.40;;;;;;20826454;28;20041;-48
2022/03/23 02:10:42;;;;;;;3.45;1.67;;;0.40;73.50;;;;;;20829054;28;20547;-46
2022/03/23 02:20:48;;;;;;;3.38;1.75;;;0.50;72.50;;;;;;20834917;28;20038;-45
2022/03/23 02:30:50;;;;;;;3.30;1.67;;;0.30;72.90;;;;;;20818111;28;20349;-45
2022/03/23 02:40:53;;;;;;;3.17;1.70;;;0.20;74.20;;;;;;20833677;28;20046;-49
2022/03/23 02:50:55;;;;;;;5.05;2.30;;;0.30;74.30;;;;;;20832630;28;20041;-47
2022/03/23 03:11:28;;;;;;;3.87;1.97;;;0.50;72.00;;;;;;20643592;28;20042;-47
2022/03/23 03:21:30;;;;;;;4.47;2.30;;;0.50;72.00;;;;;;20642690;28;20042;-46
2022/03/23 03:31:33;;;;;;;5.50;2.80;;;0.40;73.00;;;;;;20642248;28;20042;-46
2022/03/23 03:41:36;;;;;;;5.57;3.17;;;0.40;73.00;;;;;;20688014;28;20111;-45
2022/03/23 03:51:39;;;;;;;6.65;3.40;;;0.40;74.40;;;;;;20910509;28;20033;-45
2022/03/23 04:01:45;;;;;;;7.97;3.20;;;0.30;75.40;;;;;;20909428;28;20087;-46
2022/03/23 04:11:48;;;;;;;5.38;3.00;;;0.30;75.20;;;;;;20908810;28;20041;-46
2022/03/23 04:21:50;;;;;;;6.80;3.00;;;0.30;74.80;;;;;;20907846;28;20037;-46
2022/03/23 04:31:53;;;;;;;6.88;3.22;;;0.30;75.10;;;;;;20906471;28;20041;-46
2022/03/23 04:41:56;;;;;;;4.70;2.97;;;0.30;75.10;;;;;;20906353;28;20415;-47
2022/03/23 04:51:58;;;;;;;6.20;3.13;;;0.40;74.60;;;;;;20905946;28;20041;-45
2022/03/23 05:02:00;;;;;;;10.02;4.15;;;0.90;71.50;;;;;;20905013;28;20037;-47
2022/03/23 05:12:04;;;;;;;6.78;3.60;;;1.10;70.90;;;;;;20904493;28;20111;-45
2022/03/23 05:22:06;;;;;;;6.07;3.25;;;0.80;73.50;;;;;;20903978;28;20059;-48
2022/03/23 05:32:16;;;;;;;8.00;3.50;;;0.70;72.90;;;;;;20887273;28;20095;-47
2022/03/23 05:42:19;;;;;;;9.20;3.47;;;0.90;72.50;;;;;;20909168;28;20460;-46
2022/03/23 05:52:22;;;;;;;7.38;3.90;;;1.10;72.70;;;;;;20919774;28;20067;-49
2022/03/23 06:02:25;;;;;;;7.90;3.35;;;1.20;73.90;;;;;;20902568;28;20040;-47
2022/03/23 06:12:27;;;;;;;7.82;4.03;;;1.20;73.20;;;;;;20918142;28;20541;-46
2022/03/23 06:22:30;;;;;;;7.50;4.03;;;1.90;73.20;;;;;;20917544;28;20186;-46
2022/03/23 06:32:33;;;;;;;6.82;3.97;;;1.80;73.20;;;;;;20916632;28;20033;-48
2022/03/23 06:42:36;;;;;;;8.60;3.88;;;2.00;73.20;;;;;;20899534;28;20044;-45
2022/03/23 06:52:39;;;;;;;6.03;3.50;;;2.10;72.00;;;;;;20914923;28;20041;-46
2022/03/23 07:02:47;;;;;;;5.57;3.58;;;2.70;70.20;;;;;;20914098;28;20501;-47
2022/03/23 07:12:49;;;;;;;7.85;3.40;;;4.10;66.90;;;;;;20913642;28;20545;-48
2022/03/23 07:22:52;;;;;;;5.70;2.88;;;5.70;61.70;;;;;;20912911;28;20484;-46
2022/03/23 07:32:55;;;;;;;7.15;2.90;;;7.00;57.00;;;;;;20912083;28;20044;-51
2022/03/23 07:42:59;;;;;;;3.33;2.30;;;7.80;54.70;;;;;;20895298;28;20392;-46
2022/03/23 07:53:02;;;;;;;7.85;2.70;;;8.50;51.70;;;;;;20910473;28;20041;-46
2022/03/23 08:03:05;;;;;;;4.38;2.30;;;9.20;51.10;;;;;;20892288;28;20029;-48
2022/03/23 08:13:12;;;;;;;2.92;1.70;;;9.80;48.90;;;;;;20908980;28;20442;-48
2022/03/23 08:23:16;;;;;;;2.38;1.50;;;10.40;47.90;;;;;;20908020;28;20041;-48
2022/03/23 08:33:19;;;;;;;2.00;0.95;;;10.80;45.10;;;;;;20907306;28;20045;-47
2022/03/23 08:43:22;;;;;;;5.93;3.30;;;11.10;47.50;;;;;;20906423;28;20094;-51
2022/03/23 08:53:26;;;;;;;2.47;1.63;;;12.00;51.80;;;;;;20889505;28;20228;-50
2022/03/23 09:03:29;;;;;;;1.85;0.60;;;12.40;44.40;;;;;;20905012;28;20067;-49
2022/03/23 09:13:31;;;;;;;8.85;3.70;;;12.50;41.80;;;;;;20813569;28;20488;-47
2022/03/23 09:23:36;;;;;;;3.58;2.35;;;12.90;51.40;;;;;;20796520;28;20045;-54
2022/03/23 09:33:39;;;;;;;6.78;3.47;;;13.10;52.50;;;;;;20796335;28;20053;-53
2022/03/23 09:43:47;;;;;;;5.22;3.28;;;14.00;51.40;;;;;;20796553;28;20046;-48
2022/03/23 09:53:53;;;;;;;4.35;2.83;;;14.20;51.00;;;;;;20812548;28;20106;-48
2022/03/23 10:04:17;;;;;;;5.85;2.67;;;14.40;50.50;;;;;;20902373;28;20033;-48
2022/03/23 10:14:46;;;;;;;4.88;2.53;;;14.60;49.40;;;;;;20884990;28;20373;-55
2022/03/23 10:24:49;;;;;;;5.93;3.28;;;14.80;49.40;;;;;;20901354;28;20029;-51
2022/03/23 10:34:54;;;;;;;4.72;2.88;;;15.10;49.30;;;;;;20914774;28;20114;-50
2022/03/23 10:45:07;;;;;;;5.75;3.20;;;15.30;48.30;;;;;;20915776;28;20099;-52
2022/03/23 10:55:13;;;;;;;7.03;3.85;;;15.50;47.10;;;;;;20914770;28;20075;-48
2022/03/23 11:05:46;;;;;;;5.18;3.67;;;15.30;50.20;;;;;;20914255;28;20102;-50
2022/03/23 11:16:01;;;;;;;10.20;4.93;;;15.60;49.00;;;;;;20659747;28;20525;-51
2022/03/23 11:26:14;;;;;;;6.80;4.38;;;16.00;47.10;;;;;;20643011;28;20046;-56
2022/03/23 11:36:19;;;;;;;8.18;4.20;;;15.90;47.80;;;;;;20497724;29;20047;-51
2022/03/23 11:46:23;;;;;;;6.82;4.55;;;15.70;50.30;;;;;;20577943;28;20037;-56
2022/03/23 11:56:46;;;;;;;8.98;4.32;;;16.30;49.30;;;;;;20803041;28;20045;-58
2022/03/23 12:07:00;;;;;;;8.15;4.07;;;16.70;49.00;;;;;;20802023;28;20100;-55
2022/03/23 12:17:09;;;;;;;7.15;4.60;;;16.30;51.20;;;;;;20801452;28;20095;-54
2022/03/23 12:27:50;;;;;;;8.38;4.85;;;16.00;47.50;;;;;;20827906;28;20130;-53
2022/03/23 12:37:53;;;;;;;7.70;5.25;;;16.30;47.50;;;;;;20906618;28;20095;-56
2022/03/23 12:48:06;;;;;;;10.20;5.47;;;16.50;46.80;;;;;;20906070;28;20037;-54
2022/03/23 12:58:18;;;;;;;8.52;5.85;;;16.20;47.00;;;;;;20904769;28;20037;-54
2022/03/23 13:08:38;;;;;;;9.18;5.95;;;16.10;46.60;;;;;;20905037;28;20086;-56
2022/03/23 13:18:41;;;;;;;9.20;5.57;;;16.20;47.60;;;;;;20887757;28;20043;-56
2022/03/23 13:28:50;;;;;;;9.13;5.72;;;16.20;48.20;;;;;;20903978;28;20091;-56
2022/03/23 13:38:55;;;;;;;13.15;6.47;;;16.40;48.00;;;;;;20903453;28;20447;-56
2022/03/23 13:49:10;;;;;;;12.18;6.43;;;16.30;47.80;;;;;;20903045;28;20071;-54
2022/03/23 13:59:16;;;;;;;9.77;6.63;;;16.10;47.10;;;;;;20902628;28;20553;-49
2022/03/23 14:09:24;;;;;;;12.80;6.53;;;15.90;46.30;;;;;;20917932;28;20037;-55
2022/03/23 14:19:29;;;;;;;9.25;6.35;;;15.40;45.80;;;;;;20917368;28;20036;-51
2022/03/23 14:29:31;;;;;;;10.52;5.93;;;14.70;46.40;;;;;;20917007;28;20040;-54
2022/03/23 14:39:43;;;;;;;11.82;6.53;;;14.50;48.00;;;;;;20916676;28;20114;-53
2022/03/23 14:49:46;;;;;;;11.80;7.30;;;14.10;48.80;;;;;;20916273;28;20037;-52
2022/03/23 14:59:52;;;;;;;21.05;6.95;;;13.50;49.00;;;;;;20914864;28;20044;-50
2022/03/23 15:13:15;;;;;;;15.80;6.88;;;13.00;49.70;;;;;;20914248;28;20090;-52
2022/03/23 15:20:27;;;;;;;11.27;7.15;;;12.60;49.80;;;;;;20912770;28;20082;-49
2022/03/23 15:30:32;;;;;;;12.65;6.85;;;12.10;50.40;;;;;;20912609;28;20045;-52
2022/03/23 15:40:34;;;;;;;12.55;7.15;;;11.50;50.80;;;;;;20911718;28;20120;-54
2022/03/23 15:50:38;;;;;;;14.93;6.85;;;11.00;51.80;;;;;;20910886;28;20033;-52
2022/03/23 16:00:42;;;;;;;10.98;6.80;;;10.40;53.30;;;;;;20910068;28;20029;-50
2022/03/23 16:10:45;;;;;;;14.73;6.97;;;9.80;55.40;;;;;;20909550;28;20403;-51
2022/03/23 16:20:48;;;;;;;9.60;6.70;;;8.60;57.20;;;;;;20908461;28;20028;-48
2022/03/23 16:30:51;;;;;;;13.32;6.78;;;7.80;58.70;;;;;;20906641;28;20033;-52
2022/03/23 16:41:33;;;;;;;13.60;7.70;;;7.10;61.10;;;;;;20906767;28;20045;-51
2022/03/23 16:51:16;;;;;;;8.15;5.15;;;6.40;62.80;;;;;;20906397;28;20037;-46
2022/03/23 17:01:22;;;;;;;9.55;6.18;;;5.90;65.10;;;;;;20889066;28;20419;-49
2022/03/23 17:21:48;;;;;;;8.80;5.18;;;5.20;69.20;;;;;;20822297;28;20046;-46
2022/03/23 17:31:50;;;;;;;10.77;5.00;;;5.00;67.20;;;;;;20821219;28;20068;-49
2022/03/23 17:41:53;;;;;;;6.65;3.17;;;4.70;67.40;;;;;;20820644;28;20057;-48
2022/03/23 17:51:58;;;;;;;3.88;2.53;;;4.60;66.60;;;;;;20820428;28;20065;-47
2022/03/23 18:02:07;;;;;;;4.50;2.50;;;4.40;65.70;;;;;;20820102;28;20041;-48
2022/03/23 18:12:12;;;;;;;4.97;2.58;;;4.40;63.80;;;;;;20900902;28;20079;-47
2022/03/23 18:22:17;;;;;;;4.93;2.60;;;4.30;64.20;;;;;;20901573;28;20033;-47
2022/03/23 18:32:19;;;;;;;4.47;2.33;;;4.10;65.20;;;;;;20901505;28;20090;-49
2022/03/23 18:42:22;;;;;;;3.97;2.25;;;4.00;65.80;;;;;;20885367;28;20100;-46
2022/03/23 18:52:24;;;;;;;4.32;2.30;;;4.10;65.40;;;;;;20908879;28;20450;-45
2022/03/23 19:02:27;;;;;;;3.45;1.98;;;4.40;63.30;;;;;;20914959;28;20037;-58
2022/03/23 19:12:30;;;;;;;5.25;2.70;;;4.80;62.50;;;;;;20915066;28;20059;-58
2022/03/23 19:22:33;;;;;;;5.50;2.80;;;4.90;61.30;;;;;;20913246;28;20041;-58
2022/03/23 19:32:36;;;;;;;7.07;2.45;;;5.20;60.10;;;;;;20912599;28;20060;-58
2022/03/23 19:42:39;;;;;;;5.05;2.53;;;5.40;58.70;;;;;;20895061;28;20111;-59
2022/03/23 19:52:42;;;;;;;5.43;2.40;;;5.40;58.40;;;;;;20911341;28;20024;-58
2022/03/23 20:02:48;;;;;;;3.95;2.30;;;5.20;59.00;;;;;;20910027;28;20037;-58
2022/03/23 20:12:52;;;;;;;3.92;1.95;;;4.90;59.20;;;;;;20909144;28;20059;-58
2022/03/23 20:22:55;;;;;;;5.50;2.33;;;4.60;60.50;;;;;;20905381;28;20033;-61
2022/03/23 20:32:58;;;;;;;4.32;1.80;;;4.40;60.40;;;;;;20902942;28;20037;-59
2022/03/23 20:43:01;;;;;;;1.98;1.30;;;4.50;58.80;;;;;;20902408;28;20352;-59
2022/03/23 20:53:12;;;;;;;2.85;1.38;;;4.40;58.30;;;;;;20899757;28;20033;-59
2022/03/23 21:03:15;;;;;;;2.70;1.23;;;4.20;57.70;;;;;;20901083;28;20041;-63
2022/03/23 21:13:19;;;;;;;2.50;1.30;;;4.20;57.70;;;;;;20900043;28;20037;-63
2022/03/23 21:23:23;;;;;;;2.38;1.27;;;4.20;57.80;;;;;;20883797;28;20507;-60
2022/03/23 21:33:27;;;;;;;3.75;1.30;;;4.20;58.00;;;;;;20897473;28;20048;-60
2022/03/23 21:43:30;;;;;;;2.75;0.93;;;4.10;57.90;;;;;;20898043;28;20462;-59
2022/03/23 21:53:33;;;;;;;2.05;0.73;;;4.20;57.60;;;;;;20898496;28;20091;-59
2022/03/23 22:03:35;;;;;;;1.55;0.80;;;4.00;59.20;;;;;;20897199;28;20028;-59
2022/03/23 22:13:38;;;;;;;2.03;1.10;;;4.00;59.20;;;;;;20897925;28;20037;-61
2022/03/23 22:23:41;;;;;;;2.25;1.08;;;3.80;60.00;;;;;;20900197;28;20045;-63
2022/03/23 22:33:46;;;;;;;1.48;0.90;;;3.90;59.40;;;;;;20912648;28;20099;-64
2022/03/23 22:43:49;;;;;;;1.63;0.90;;;3.90;60.50;;;;;;20907822;28;20079;-62
2022/03/23 22:53:52;;;;;;;2.60;1.00;;;3.60;60.70;;;;;;20912961;28;20040;-47
2022/03/23 23:03:57;;;;;;;1.83;0.90;;;3.60;60.60;;;;;;20910782;28;20095;-46
2022/03/23 23:14:00;;;;;;;2.58;0.95;;;3.70;61.20;;;;;;20908876;28;20098;-48
2022/03/23 23:24:04;;;;;;;3.25;1.08;;;3.60;61.60;;;;;;20904969;28;20392;-49
2022/03/23 23:34:07;;;;;;;2.70;1.20;;;3.50;61.50;;;;;;20891032;28;20041;-48
2022/03/23 23:44:16;;;;;;;2.80;1.30;;;3.50;62.10;;;;;;20907427;28;20067;-49
2022/03/23 23:54:19;;;;;;;3.85;1.67;;;3.50;61.90;;;;;;20903268;28;20032;-47
